Anacortes, Washington
Current Conditions -  °F | °C
As of 2:55 AM on Wednesday 26 Nov 2014 (Local Time) from KBVS Reporting Station
Overcast Overcast  
Wind Chill: 46°   Ceiling: 100
Heat Index: 46°   Visibility: 10mi
Dew Point: 46°   Wind: 0mph
Humidity: 100%   Direction: NA
Pressure: 30.14"   Gusts: NA
Location:  48.51°N, 122.61°W
Report Text: KBVS 261055Z AUTO 00000KT 10SM BKN001 OVC038 08/08 A3014 RMK A01 P000
Loading
Personal Weather Stations






























Interactive Weather Map New forecast layout! Learn more

10-Day Weather Forecast

Advertisements
Track Severe Weather on mobile